Time;durP1;ratioP1;P1;durP2;ratioP2;P2;SDS_P1;SDS_P2;PMS_P1;PMS_P2;Temp;Humidity;BMP_temperature;BMP_pressure;BME280_temperature;BME280_humidity;BME280_pressure;Samples;Min_cycle;Max_cycle;Signal;HPM_P1;HPM_P2
2022/08/21 00:04:49;;;;;;;;;;;;;;;;;;21080921;28;19924;-54
2022/08/21 00:14:51;;;;;;;;;;;;;;;;;;21080372;28;19932;-56
2022/08/21 00:24:52;;;;;;;;;;;;;;;;;;21079924;28;19924;-56
2022/08/21 00:34:54;;;;;;;;;;;;;;;;;;21079434;28;19925;-59
2022/08/21 00:44:56;;;;;;;;;;;;;;;;;;21080028;28;20088;-57
2022/08/21 00:54:58;;;;;;;;;;;;;;;;;;21082205;28;19989;-56
2022/08/21 01:05:00;;;;;;;;;;;;;;;;;;21078252;28;20007;-63
2022/08/21 01:15:05;;;;;;;;;;;;;;;;;;21078444;28;19975;-62
2022/08/21 01:25:07;;;;;;;;;;;;;;;;;;21094975;28;20368;-55
2022/08/21 01:35:16;;;;;;;;;;;;;;;;;;21095371;28;20027;-64
2022/08/21 01:45:25;;;;;;;;;;;;;;;;;;21092773;28;19985;-66
2022/08/21 01:55:32;;;;;;;;;;;;;;;;;;21092062;28;19998;-63
2022/08/21 02:05:46;;;;;;;;;;;;;;;;;;21090938;28;20006;-65
2022/08/21 02:15:59;;;;;;;;;;;;;;;;;;21089755;28;20011;-65
2022/08/21 02:26:07;;;;;;;;;;;;;;;;;;21089251;28;19931;-65
2022/08/21 02:36:13;;;;;;;;;;;;;;;;;;21089646;28;19924;-64
2022/08/21 02:46:28;;;;;;;;;;;;;;;;;;21087340;28;19924;-55
2022/08/21 02:56:43;;;;;;;;;;;;;;;;;;21087950;28;19924;-55
2022/08/21 03:06:50;;;;;;;;;;;;;;;;;;21085303;28;20426;-59
2022/08/21 03:16:56;;;;;;;;;;;;;;;;;;21084678;28;19938;-55
2022/08/21 03:27:00;;;;;;;;;;;;;;;;;;21085156;28;19923;-54
2022/08/21 03:37:05;;;;;;;;;;;;;;;;;;21083448;28;19939;-55
2022/08/21 03:47:08;;;;;;;;;;;;;;;;;;21082600;28;19978;-56
2022/08/21 03:57:11;;;;;;;;;;;;;;;;;;21084077;28;19924;-55
2022/08/21 04:07:14;;;;;;;;;;;;;;;;;;21081594;28;20403;-54
2022/08/21 04:17:16;;;;;;;;;;;;;;;;;;21081553;28;19928;-54
2022/08/21 04:27:20;;;;;;;;;;;;;;;;;;21080485;28;19928;-57
2022/08/21 04:37:22;;;;;;;;;;;;;;;;;;21080602;28;20367;-54
2022/08/21 04:47:25;;;;;;;;;;;;;;;;;;21079081;28;19967;-56
2022/08/21 04:57:27;;;;;;;;;;;;;;;;;;21092358;28;19924;-56
2022/08/21 05:07:29;;;;;;;;;;;;;;;;;;21095619;28;20429;-56
2022/08/21 05:17:31;;;;;;;;;;;;;;;;;;21095706;28;19927;-56
2022/08/21 05:27:36;;;;;;;;;;;;;;;;;;21093510;28;19931;-55
2022/08/21 05:37:37;;;;;;;;;;;;;;;;;;21093518;28;20383;-53
2022/08/21 05:47:40;;;;;;;;;;;;;;;;;;21094128;28;19977;-54
2022/08/21 05:57:41;;;;;;;;;;;;;;;;;;21092332;28;20380;-64
2022/08/21 06:07:43;;;;;;;;;;;;;;;;;;21090679;28;19924;-63
2022/08/21 06:17:45;;;;;;;;;;;;;;;;;;21089761;28;19924;-55
2022/08/21 06:27:48;;;;;;;;;;;;;;;;;;21088929;28;19924;-63
2022/08/21 06:37:49;;;;;;;;;;;;;;;;;;21088066;28;19924;-54
2022/08/21 06:47:51;;;;;;;;;;;;;;;;;;21088103;28;19985;-63
2022/08/21 06:57:54;;;;;;;;;;;;;;;;;;21088719;28;20300;-55
2022/08/21 07:07:56;;;;;;;;;;;;;;;;;;21088450;28;20432;-55
2022/08/21 07:17:58;;;;;;;;;;;;;;;;;;21084436;28;19924;-56
2022/08/21 07:28:00;;;;;;;;;;;;;;;;;;21084778;28;20019;-55
2022/08/21 07:38:04;;;;;;;;;;;;;;;;;;21084299;28;19970;-62
2022/08/21 07:48:06;;;;;;;;;;;;;;;;;;21082745;28;20098;-54
2022/08/21 07:58:08;;;;;;;;;;;;;;;;;;21083051;28;19968;-55
2022/08/21 08:08:10;;;;;;;;;;;;;;;;;;21082799;28;19985;-54
2022/08/21 08:18:13;;;;;;;;;;;;;;;;;;21083535;28;20428;-56
2022/08/21 08:28:15;;;;;;;;;;;;;;;;;;21082724;28;19924;-56
2022/08/21 08:38:18;;;;;;;;;;;;;;;;;;21081230;28;19932;-56
2022/08/21 08:48:20;;;;;;;;;;;;;;;;;;21079408;28;19972;-53
2022/08/21 08:58:22;;;;;;;;;;;;;;;;;;21079568;28;20011;-55
2022/08/21 09:08:23;;;;;;;;;;;;;;;;;;21077719;28;19931;-55
2022/08/21 09:18:25;;;;;;;;;;;;;;;;;;21076440;28;20023;-55
2022/08/21 09:28:27;;;;;;;;;;;;;;;;;;21078221;28;19947;-53
2022/08/21 09:38:29;;;;;;;;;;;;;;;;;;21081846;28;19931;-56
2022/08/21 09:48:31;;;;;;;;;;;;;;;;;;21092324;28;19945;-55
2022/08/21 09:58:33;;;;;;;;;;;;;;;;;;21094667;28;19932;-54
2022/08/21 10:08:36;;;;;;;;;;;;;;;;;;21090414;28;19930;-56
2022/08/21 10:18:38;;;;;;;;;;;;;;;;;;21090450;28;19924;-56
2022/08/21 10:28:40;;;;;;;;;;;;;;;;;;21091962;28;19963;-56
2022/08/21 10:38:42;;;;;;;;;;;;;;;;;;21089593;28;20011;-56
2022/08/21 10:48:44;;;;;;;;;;;;;;;;;;21086667;28;19924;-54
2022/08/21 10:58:46;;;;;;;;;;;;;;;;;;21086488;28;19924;-55
2022/08/21 11:08:50;;;;;;;;;;;;;;;;;;21084130;28;19924;-54
2022/08/21 11:18:52;;;;;;;;;;;;;;;;;;21083164;28;19975;-55
2022/08/21 11:28:55;;;;;;;;;;;;;;;;;;21083623;28;19940;-55
2022/08/21 11:38:58;;;;;;;;;;;;;;;;;;21082917;28;20429;-55
2022/08/21 11:49:00;;;;;;;;;;;;;;;;;;21082388;28;20030;-55
2022/08/21 11:59:02;;;;;;;;;;;;;;;;;;21080644;28;20034;-56
2022/08/21 12:09:04;;;;;;;;;;;;;;;;;;21081484;28;19932;-54
2022/08/21 12:19:08;;;;;;;;;;;;;;;;;;21080612;28;20200;-55
2022/08/21 12:29:11;;;;;;;;;;;;;;;;;;21080111;28;19924;-56
2022/08/21 12:39:12;;;;;;;;;;;;;;;;;;21080561;28;19934;-57
2022/08/21 12:49:15;;;;;;;;;;;;;;;;;;21080423;28;20388;-56
2022/08/21 12:59:17;;;;;;;;;;;;;;;;;;21082174;28;19924;-55
2022/08/21 13:09:19;;;;;;;;;;;;;;;;;;21081227;28;19924;-56
2022/08/21 13:19:22;;;;;;;;;;;;;;;;;;21096022;28;19924;-59
2022/08/21 13:29:25;;;;;;;;;;;;;;;;;;21098211;28;20371;-56
2022/08/21 13:39:27;;;;;;;;;;;;;;;;;;21093940;28;19933;-57
2022/08/21 13:49:30;;;;;;;;;;;;;;;;;;21092552;28;19977;-56
2022/08/21 13:59:32;;;;;;;;;;;;;;;;;;21092272;28;20006;-58
2022/08/21 14:09:34;;;;;;;;;;;;;;;;;;21092978;28;19924;-56
2022/08/21 14:19:39;;;;;;;;;;;;;;;;;;21091164;28;19932;-56
2022/08/21 14:29:41;;;;;;;;;;;;;;;;;;21089149;28;19925;-56
2022/08/21 14:39:44;;;;;;;;;;;;;;;;;;21089568;28;19969;-58
2022/08/21 14:49:47;;;;;;;;;;;;;;;;;;21088604;28;20330;-56
2022/08/21 14:59:49;;;;;;;;;;;;;;;;;;21088658;28;19970;-55
2022/08/21 15:09:51;;;;;;;;;;;;;;;;;;21089333;28;19976;-54
2022/08/21 15:19:53;;;;;;;;;;;;;;;;;;21087053;28;20257;-55
2022/08/21 15:29:55;;;;;;;;;;;;;;;;;;21084781;28;19983;-57
2022/08/21 15:39:57;;;;;;;;;;;;;;;;;;21083439;28;20343;-56
2022/08/21 15:49:59;;;;;;;;;;;;;;;;;;21082909;28;20283;-55
2022/08/21 16:00:08;;;;;;;;;;;;;;;;;;21083970;28;19925;-56
2022/08/21 16:10:10;;;;;;;;;;;;;;;;;;21084159;28;19931;-54
2022/08/21 16:20:12;;;;;;;;;;;;;;;;;;21081320;28;20467;-58
2022/08/21 16:30:14;;;;;;;;;;;;;;;;;;21080097;28;19924;-58
2022/08/21 16:40:16;;;;;;;;;;;;;;;;;;21079733;28;20437;-58
2022/08/21 16:50:17;;;;;;;;;;;;;;;;;;21078397;28;19947;-57
2022/08/21 17:00:19;;;;;;;;;;;;;;;;;;21078432;28;20012;-59
2022/08/21 17:10:20;;;;;;;;;;;;;;;;;;21079059;28;19924;-56
2022/08/21 17:20:23;;;;;;;;;;;;;;;;;;21077576;28;19928;-57
2022/08/21 17:30:25;;;;;;;;;;;;;;;;;;21076997;28;19924;-56
2022/08/21 17:40:27;;;;;;;;;;;;;;;;;;21076868;28;19924;-55
2022/08/21 17:50:29;;;;;;;;;;;;;;;;;;21076635;28;19971;-57
2022/08/21 18:00:30;;;;;;;;;;;;;;;;;;21082018;28;19924;-56
2022/08/21 18:10:32;;;;;;;;;;;;;;;;;;21090294;28;19928;-55
2022/08/21 18:20:34;;;;;;;;;;;;;;;;;;21089360;28;19924;-54
2022/08/21 18:30:36;;;;;;;;;;;;;;;;;;21088416;28;19924;-58
2022/08/21 18:40:38;;;;;;;;;;;;;;;;;;21089646;28;19924;-54
2022/08/21 18:50:39;;;;;;;;;;;;;;;;;;21087561;28;20481;-55
2022/08/21 19:00:44;;;;;;;;;;;;;;;;;;21089683;28;20050;-56
2022/08/21 19:10:46;;;;;;;;;;;;;;;;;;21091927;28;20482;-57
2022/08/21 19:20:48;;;;;;;;;;;;;;;;;;21085613;28;20376;-56
2022/08/21 19:30:50;;;;;;;;;;;;;;;;;;21084394;28;19925;-55
2022/08/21 19:40:52;;;;;;;;;;;;;;;;;;21082647;28;20291;-55
2022/08/21 19:50:54;;;;;;;;;;;;;;;;;;21086210;28;19969;-55
2022/08/21 20:00:57;;;;;;;;;;;;;;;;;;21083027;28;19967;-56
2022/08/21 20:10:59;;;;;;;;;;;;;;;;;;21081267;28;20021;-56
2022/08/21 20:21:01;;;;;;;;;;;;;;;;;;21080435;28;19931;-56
2022/08/21 20:31:03;;;;;;;;;;;;;;;;;;21080107;28;20030;-55
2022/08/21 20:41:06;;;;;;;;;;;;;;;;;;21080583;28;19924;-55
2022/08/21 20:51:08;;;;;;;;;;;;;;;;;;21079119;28;19924;-55
2022/08/21 21:01:10;;;;;;;;;;;;;;;;;;21078436;28;19960;-57
2022/08/21 21:11:12;;;;;;;;;;;;;;;;;;21079068;28;20028;-56
2022/08/21 21:21:14;;;;;;;;;;;;;;;;;;21078080;28;19931;-55
2022/08/21 21:31:16;;;;;;;;;;;;;;;;;;21078034;28;19924;-54
2022/08/21 21:41:18;;;;;;;;;;;;;;;;;;21096529;28;19924;-55
2022/08/21 21:51:20;;;;;;;;;;;;;;;;;;21093549;28;19924;-54
2022/08/21 22:01:22;;;;;;;;;;;;;;;;;;21092671;28;19971;-55
2022/08/21 22:11:23;;;;;;;;;;;;;;;;;;21093073;28;20015;-55
2022/08/21 22:21:25;;;;;;;;;;;;;;;;;;21090448;28;19928;-54
2022/08/21 22:31:27;;;;;;;;;;;;;;;;;;21090517;28;19924;-55
2022/08/21 22:41:29;;;;;;;;;;;;;;;;;;21089473;28;19947;-55
2022/08/21 22:51:31;;;;;;;;;;;;;;;;;;21087567;28;19924;-55
2022/08/21 23:01:33;;;;;;;;;;;;;;;;;;21098717;28;19950;-55
2022/08/21 23:11:35;;;;;;;;;;;;;;;;;;21089609;28;19975;-57
2022/08/21 23:21:37;;;;;;;;;;;;;;;;;;21086135;28;19924;-55
2022/08/21 23:31:39;;;;;;;;;;;;;;;;;;21085544;28;19924;-56
2022/08/21 23:41:41;;;;;;;;;;;;;;;;;;21083831;28;19931;-55
2022/08/21 23:51:43;;;;;;;;;;;;;;;;;;21082299;28;19928;-55
